sensor_id;sensor_type;location;lat;lon;timestamp;P1;durP1;ratioP1;P2;durP2;ratioP2
53453;SDS011;49404;50.472;6.954;2022-07-23T00:02:21;8.98;;;8.15;;
53453;SDS011;49404;50.472;6.954;2022-07-23T00:04:47;8.38;;;7.70;;
53453;SDS011;49404;50.472;6.954;2022-07-23T00:07:13;8.07;;;7.47;;
53453;SDS011;49404;50.472;6.954;2022-07-23T00:09:39;8.05;;;7.35;;
53453;SDS011;49404;50.472;6.954;2022-07-23T00:12:04;8.30;;;7.60;;
53453;SDS011;49404;50.472;6.954;2022-07-23T00:14:30;11.10;;;8.10;;
53453;SDS011;49404;50.472;6.954;2022-07-23T00:16:59;8.90;;;8.10;;
53453;SDS011;49404;50.472;6.954;2022-07-23T00:19:25;9.15;;;8.45;;
53453;SDS011;49404;50.472;6.954;2022-07-23T00:21:54;8.80;;;8.10;;
53453;SDS011;49404;50.472;6.954;2022-07-23T00:24:25;9.20;;;8.50;;
53453;SDS011;49404;50.472;6.954;2022-07-23T00:26:51;11.52;;;10.52;;
53453;SDS011;49404;50.472;6.954;2022-07-23T00:29:16;10.43;;;9.63;;
53453;SDS011;49404;50.472;6.954;2022-07-23T00:31:48;10.23;;;9.20;;
53453;SDS011;49404;50.472;6.954;2022-07-23T00:34:16;9.90;;;8.95;;
53453;SDS011;49404;50.472;6.954;2022-07-23T00:36:49;10.80;;;9.85;;
53453;SDS011;49404;50.472;6.954;2022-07-23T00:39:15;11.93;;;10.95;;
53453;SDS011;49404;50.472;6.954;2022-07-23T00:41:49;11.50;;;10.45;;
53453;SDS011;49404;50.472;6.954;2022-07-23T00:44:26;11.35;;;10.45;;
53453;SDS011;49404;50.472;6.954;2022-07-23T00:46:53;11.20;;;10.18;;
53453;SDS011;49404;50.472;6.954;2022-07-23T00:49:29;10.98;;;9.80;;
53453;SDS011;49404;50.472;6.954;2022-07-23T00:51:58;11.07;;;10.13;;
53453;SDS011;49404;50.472;6.954;2022-07-23T00:54:36;9.95;;;9.25;;
53453;SDS011;49404;50.472;6.954;2022-07-23T00:57:02;12.45;;;10.55;;
53453;SDS011;49404;50.472;6.954;2022-07-23T00:59:28;11.32;;;10.43;;
53453;SDS011;49404;50.472;6.954;2022-07-23T01:01:56;11.63;;;10.63;;
53453;SDS011;49404;50.472;6.954;2022-07-23T01:04:22;10.95;;;10.10;;
53453;SDS011;49404;50.472;6.954;2022-07-23T01:06:47;12.10;;;11.10;;
53453;SDS011;49404;50.472;6.954;2022-07-23T01:09:13;11.55;;;10.50;;
53453;SDS011;49404;50.472;6.954;2022-07-23T01:11:44;10.60;;;9.80;;
53453;SDS011;49404;50.472;6.954;2022-07-23T01:14:15;12.00;;;11.02;;
53453;SDS011;49404;50.472;6.954;2022-07-23T01:16:48;12.85;;;11.73;;
53453;SDS011;49404;50.472;6.954;2022-07-23T01:19:15;12.82;;;11.73;;
53453;SDS011;49404;50.472;6.954;2022-07-23T01:21:48;12.98;;;12.07;;
53453;SDS011;49404;50.472;6.954;2022-07-23T01:24:16;12.23;;;11.30;;
53453;SDS011;49404;50.472;6.954;2022-07-23T01:26:47;12.73;;;11.77;;
53453;SDS011;49404;50.472;6.954;2022-07-23T01:29:13;14.40;;;12.52;;
53453;SDS011;49404;50.472;6.954;2022-07-23T01:31:40;15.18;;;12.95;;
53453;SDS011;49404;50.472;6.954;2022-07-23T01:34:12;14.40;;;11.55;;
53453;SDS011;49404;50.472;6.954;2022-07-23T01:36:38;14.85;;;11.93;;
53453;SDS011;49404;50.472;6.954;2022-07-23T01:39:05;13.80;;;12.50;;
53453;SDS011;49404;50.472;6.954;2022-07-23T01:41:34;13.60;;;12.45;;
53453;SDS011;49404;50.472;6.954;2022-07-23T01:44:00;12.77;;;11.77;;
53453;SDS011;49404;50.472;6.954;2022-07-23T01:46:28;14.50;;;13.30;;
53453;SDS011;49404;50.472;6.954;2022-07-23T01:48:58;14.13;;;13.00;;
53453;SDS011;49404;50.472;6.954;2022-07-23T01:51:24;16.83;;;12.10;;
53453;SDS011;49404;50.472;6.954;2022-07-23T01:53:49;14.05;;;12.95;;
53453;SDS011;49404;50.472;6.954;2022-07-23T01:56:17;14.27;;;13.20;;
53453;SDS011;49404;50.472;6.954;2022-07-23T01:58:46;14.85;;;13.63;;
53453;SDS011;49404;50.472;6.954;2022-07-23T02:01:14;14.00;;;12.80;;
53453;SDS011;49404;50.472;6.954;2022-07-23T02:03:46;14.70;;;13.60;;
53453;SDS011;49404;50.472;6.954;2022-07-23T02:06:11;14.32;;;13.18;;
53453;SDS011;49404;50.472;6.954;2022-07-23T02:08:37;13.70;;;12.60;;
53453;SDS011;49404;50.472;6.954;2022-07-23T02:11:03;15.13;;;12.32;;
53453;SDS011;49404;50.472;6.954;2022-07-23T02:13:28;13.38;;;12.38;;
53453;SDS011;49404;50.472;6.954;2022-07-23T02:16:00;13.70;;;12.63;;
53453;SDS011;49404;50.472;6.954;2022-07-23T02:18:26;14.32;;;13.18;;
53453;SDS011;49404;50.472;6.954;2022-07-23T02:20:59;13.73;;;12.55;;
53453;SDS011;49404;50.472;6.954;2022-07-23T02:23:24;13.00;;;12.00;;
53453;SDS011;49404;50.472;6.954;2022-07-23T02:25:50;12.65;;;11.60;;
53453;SDS011;49404;50.472;6.954;2022-07-23T02:28:16;12.77;;;11.68;;
53453;SDS011;49404;50.472;6.954;2022-07-23T02:30:41;12.52;;;11.43;;
53453;SDS011;49404;50.472;6.954;2022-07-23T02:33:13;11.73;;;10.73;;
53453;SDS011;49404;50.472;6.954;2022-07-23T02:35:41;12.82;;;11.82;;
53453;SDS011;49404;50.472;6.954;2022-07-23T02:38:12;12.18;;;11.18;;
53453;SDS011;49404;50.472;6.954;2022-07-23T02:40:47;12.45;;;11.45;;
53453;SDS011;49404;50.472;6.954;2022-07-23T02:45:40;11.82;;;10.73;;
53453;SDS011;49404;50.472;6.954;2022-07-23T02:48:10;12.75;;;11.57;;
53453;SDS011;49404;50.472;6.954;2022-07-23T02:50:38;11.65;;;10.70;;
53453;SDS011;49404;50.472;6.954;2022-07-23T02:53:03;11.85;;;10.95;;
53453;SDS011;49404;50.472;6.954;2022-07-23T02:55:29;10.82;;;9.93;;
53453;SDS011;49404;50.472;6.954;2022-07-23T02:57:58;11.10;;;10.10;;
53453;SDS011;49404;50.472;6.954;2022-07-23T03:00:23;10.38;;;9.55;;
53453;SDS011;49404;50.472;6.954;2022-07-23T03:02:49;11.02;;;10.02;;
53453;SDS011;49404;50.472;6.954;2022-07-23T03:05:15;10.57;;;9.68;;
53453;SDS011;49404;50.472;6.954;2022-07-23T03:07:40;8.80;;;8.10;;
53453;SDS011;49404;50.472;6.954;2022-07-23T03:10:06;8.30;;;7.60;;
53453;SDS011;49404;50.472;6.954;2022-07-23T03:12:37;8.45;;;7.75;;
53453;SDS011;49404;50.472;6.954;2022-07-23T03:15:06;8.07;;;7.38;;
53453;SDS011;49404;50.472;6.954;2022-07-23T03:17:40;8.45;;;7.68;;
53453;SDS011;49404;50.472;6.954;2022-07-23T03:20:12;8.00;;;7.20;;
53453;SDS011;49404;50.472;6.954;2022-07-23T03:22:38;8.10;;;7.40;;
53453;SDS011;49404;50.472;6.954;2022-07-23T03:25:04;7.35;;;6.70;;
53453;SDS011;49404;50.472;6.954;2022-07-23T03:27:37;7.65;;;7.00;;
53453;SDS011;49404;50.472;6.954;2022-07-23T03:32:40;8.07;;;7.38;;
53453;SDS011;49404;50.472;6.954;2022-07-23T03:35:05;9.15;;;7.22;;
53453;SDS011;49404;50.472;6.954;2022-07-23T03:37:37;7.82;;;7.13;;
53453;SDS011;49404;50.472;6.954;2022-07-23T03:40:03;8.73;;;8.02;;
53453;SDS011;49404;50.472;6.954;2022-07-23T03:42:30;13.48;;;9.00;;
53453;SDS011;49404;50.472;6.954;2022-07-23T03:45:06;9.32;;;8.43;;
53453;SDS011;49404;50.472;6.954;2022-07-23T03:47:35;9.88;;;8.25;;
53453;SDS011;49404;50.472;6.954;2022-07-23T03:50:00;8.98;;;8.27;;
53453;SDS011;49404;50.472;6.954;2022-07-23T03:52:26;9.38;;;8.48;;
53453;SDS011;49404;50.472;6.954;2022-07-23T03:55:01;9.07;;;8.38;;
53453;SDS011;49404;50.472;6.954;2022-07-23T03:57:27;8.75;;;8.05;;
53453;SDS011;49404;50.472;6.954;2022-07-23T04:00:00;8.18;;;7.47;;
53453;SDS011;49404;50.472;6.954;2022-07-23T04:02:27;8.10;;;7.40;;
53453;SDS011;49404;50.472;6.954;2022-07-23T04:04:53;10.27;;;7.93;;
53453;SDS011;49404;50.472;6.954;2022-07-23T04:07:24;8.25;;;7.55;;
53453;SDS011;49404;50.472;6.954;2022-07-23T04:09:50;8.02;;;7.43;;
53453;SDS011;49404;50.472;6.954;2022-07-23T04:12:16;7.88;;;7.18;;
53453;SDS011;49404;50.472;6.954;2022-07-23T04:14:42;7.80;;;7.10;;
53453;SDS011;49404;50.472;6.954;2022-07-23T04:17:11;7.50;;;6.85;;
53453;SDS011;49404;50.472;6.954;2022-07-23T04:19:37;7.60;;;7.00;;
53453;SDS011;49404;50.472;6.954;2022-07-23T04:22:06;7.70;;;7.00;;
53453;SDS011;49404;50.472;6.954;2022-07-23T04:24:36;7.47;;;6.88;;
53453;SDS011;49404;50.472;6.954;2022-07-23T04:27:02;7.18;;;6.57;;
53453;SDS011;49404;50.472;6.954;2022-07-23T04:29:29;7.35;;;6.75;;
53453;SDS011;49404;50.472;6.954;2022-07-23T04:31:57;8.18;;;7.38;;
53453;SDS011;49404;50.472;6.954;2022-07-23T04:34:23;8.02;;;7.22;;
53453;SDS011;49404;50.472;6.954;2022-07-23T04:36:51;8.07;;;7.28;;
53453;SDS011;49404;50.472;6.954;2022-07-23T04:39:17;7.50;;;6.82;;
53453;SDS011;49404;50.472;6.954;2022-07-23T04:41:47;8.45;;;7.65;;
53453;SDS011;49404;50.472;6.954;2022-07-23T04:44:12;9.55;;;8.75;;
53453;SDS011;49404;50.472;6.954;2022-07-23T04:46:38;9.23;;;8.40;;
53453;SDS011;49404;50.472;6.954;2022-07-23T04:49:06;10.13;;;9.32;;
53453;SDS011;49404;50.472;6.954;2022-07-23T04:51:38;9.02;;;8.32;;
53453;SDS011;49404;50.472;6.954;2022-07-23T04:54:03;10.18;;;9.27;;
53453;SDS011;49404;50.472;6.954;2022-07-23T04:56:29;10.90;;;9.90;;
53453;SDS011;49404;50.472;6.954;2022-07-23T04:59:01;13.77;;;8.15;;
53453;SDS011;49404;50.472;6.954;2022-07-23T05:01:28;10.48;;;9.48;;
53453;SDS011;49404;50.472;6.954;2022-07-23T05:03:54;9.95;;;9.05;;
53453;SDS011;49404;50.472;6.954;2022-07-23T05:06:26;8.77;;;7.95;;
53453;SDS011;49404;50.472;6.954;2022-07-23T05:08:51;8.90;;;8.20;;
53453;SDS011;49404;50.472;6.954;2022-07-23T05:11:17;8.93;;;8.13;;
53453;SDS011;49404;50.472;6.954;2022-07-23T05:13:51;9.50;;;8.70;;
53453;SDS011;49404;50.472;6.954;2022-07-23T05:16:17;10.80;;;10.00;;
53453;SDS011;49404;50.472;6.954;2022-07-23T05:18:42;9.98;;;9.18;;
53453;SDS011;49404;50.472;6.954;2022-07-23T05:21:14;9.57;;;8.80;;
53453;SDS011;49404;50.472;6.954;2022-07-23T05:23:40;10.90;;;10.00;;
53453;SDS011;49404;50.472;6.954;2022-07-23T05:26:05;10.50;;;9.73;;
53453;SDS011;49404;50.472;6.954;2022-07-23T05:28:31;11.65;;;10.75;;
53453;SDS011;49404;50.472;6.954;2022-07-23T05:31:00;12.05;;;10.90;;
53453;SDS011;49404;50.472;6.954;2022-07-23T05:33:25;14.18;;;12.80;;
53453;SDS011;49404;50.472;6.954;2022-07-23T05:35:51;12.98;;;11.77;;
53453;SDS011;49404;50.472;6.954;2022-07-23T05:38:16;14.27;;;12.98;;
53453;SDS011;49404;50.472;6.954;2022-07-23T05:40:42;10.05;;;9.27;;
53453;SDS011;49404;50.472;6.954;2022-07-23T05:43:12;14.18;;;13.00;;
53453;SDS011;49404;50.472;6.954;2022-07-23T05:45:40;14.00;;;12.57;;
53453;SDS011;49404;50.472;6.954;2022-07-23T05:48:05;13.48;;;12.38;;
53453;SDS011;49404;50.472;6.954;2022-07-23T05:50:38;14.02;;;12.98;;
53453;SDS011;49404;50.472;6.954;2022-07-23T05:53:06;13.20;;;12.10;;
53453;SDS011;49404;50.472;6.954;2022-07-23T05:55:40;14.90;;;13.70;;
53453;SDS011;49404;50.472;6.954;2022-07-23T05:58:06;13.18;;;12.18;;
53453;SDS011;49404;50.472;6.954;2022-07-23T06:00:35;13.07;;;12.05;;
53453;SDS011;49404;50.472;6.954;2022-07-23T06:03:01;13.55;;;12.27;;
53453;SDS011;49404;50.472;6.954;2022-07-23T06:05:26;12.77;;;11.60;;
53453;SDS011;49404;50.472;6.954;2022-07-23T06:07:54;13.02;;;11.93;;
53453;SDS011;49404;50.472;6.954;2022-07-23T06:10:26;12.50;;;11.50;;
53453;SDS011;49404;50.472;6.954;2022-07-23T06:12:51;11.50;;;10.60;;
53453;SDS011;49404;50.472;6.954;2022-07-23T06:15:27;11.63;;;10.73;;
53453;SDS011;49404;50.472;6.954;2022-07-23T06:17:53;10.95;;;9.95;;
53453;SDS011;49404;50.472;6.954;2022-07-23T06:20:18;10.73;;;9.82;;
53453;SDS011;49404;50.472;6.954;2022-07-23T06:22:53;9.35;;;8.55;;
53453;SDS011;49404;50.472;6.954;2022-07-23T06:25:18;8.32;;;7.63;;
53453;SDS011;49404;50.472;6.954;2022-07-23T06:27:47;7.78;;;7.18;;
53453;SDS011;49404;50.472;6.954;2022-07-23T06:30:13;8.23;;;6.40;;
53453;SDS011;49404;50.472;6.954;2022-07-23T06:32:40;9.98;;;5.88;;
53453;SDS011;49404;50.472;6.954;2022-07-23T06:35:07;8.70;;;7.90;;
53453;SDS011;49404;50.472;6.954;2022-07-23T06:37:38;6.95;;;6.25;;
53453;SDS011;49404;50.472;6.954;2022-07-23T06:40:04;7.20;;;6.60;;
53453;SDS011;49404;50.472;6.954;2022-07-23T06:42:30;11.82;;;10.77;;
53453;SDS011;49404;50.472;6.954;2022-07-23T06:45:03;8.77;;;8.10;;
53453;SDS011;49404;50.472;6.954;2022-07-23T06:47:29;8.48;;;7.68;;
53453;SDS011;49404;50.472;6.954;2022-07-23T06:49:54;9.20;;;8.30;;
53453;SDS011;49404;50.472;6.954;2022-07-23T06:52:23;7.45;;;6.85;;
53453;SDS011;49404;50.472;6.954;2022-07-23T06:54:49;6.18;;;5.68;;
53453;SDS011;49404;50.472;6.954;2022-07-23T06:57:15;6.15;;;5.65;;
53453;SDS011;49404;50.472;6.954;2022-07-23T06:59:40;6.60;;;6.00;;
53453;SDS011;49404;50.472;6.954;2022-07-23T07:02:07;7.63;;;7.00;;
53453;SDS011;49404;50.472;6.954;2022-07-23T07:04:41;6.45;;;5.85;;
53453;SDS011;49404;50.472;6.954;2022-07-23T07:07:07;6.38;;;5.78;;
53453;SDS011;49404;50.472;6.954;2022-07-23T07:09:35;6.25;;;5.68;;
53453;SDS011;49404;50.472;6.954;2022-07-23T07:12:01;5.38;;;4.88;;
53453;SDS011;49404;50.472;6.954;2022-07-23T07:14:26;4.75;;;4.13;;
53453;SDS011;49404;50.472;6.954;2022-07-23T07:16:54;6.97;;;6.38;;
53453;SDS011;49404;50.472;6.954;2022-07-23T07:19:26;5.60;;;5.10;;
53453;SDS011;49404;50.472;6.954;2022-07-23T07:21:54;6.32;;;5.10;;
53453;SDS011;49404;50.472;6.954;2022-07-23T07:24:19;6.40;;;5.70;;
53453;SDS011;49404;50.472;6.954;2022-07-23T07:26:51;5.38;;;4.80;;
53453;SDS011;49404;50.472;6.954;2022-07-23T07:29:16;4.30;;;3.80;;
53453;SDS011;49404;50.472;6.954;2022-07-23T07:31:48;4.78;;;4.15;;
53453;SDS011;49404;50.472;6.954;2022-07-23T07:34:13;4.32;;;3.60;;
53453;SDS011;49404;50.472;6.954;2022-07-23T07:36:39;3.72;;;3.42;;
53453;SDS011;49404;50.472;6.954;2022-07-23T07:39:04;4.10;;;3.25;;
53453;SDS011;49404;50.472;6.954;2022-07-23T07:41:39;3.72;;;3.42;;
53453;SDS011;49404;50.472;6.954;2022-07-23T07:44:04;4.10;;;3.25;;
53453;SDS011;49404;50.472;6.954;2022-07-23T07:46:30;3.58;;;2.70;;
53453;SDS011;49404;50.472;6.954;2022-07-23T07:48:59;3.35;;;2.20;;
53453;SDS011;49404;50.472;6.954;2022-07-23T07:51:25;2.63;;;2.03;;
53453;SDS011;49404;50.472;6.954;2022-07-23T07:53:52;3.13;;;2.20;;
53453;SDS011;49404;50.472;6.954;2022-07-23T07:56:17;3.45;;;1.95;;
53453;SDS011;49404;50.472;6.954;2022-07-23T07:58:43;3.47;;;2.47;;
53453;SDS011;49404;50.472;6.954;2022-07-23T08:01:14;4.32;;;3.20;;
53453;SDS011;49404;50.472;6.954;2022-07-23T08:03:40;3.70;;;3.10;;
53453;SDS011;49404;50.472;6.954;2022-07-23T08:06:08;3.90;;;2.60;;
53453;SDS011;49404;50.472;6.954;2022-07-23T08:08:37;6.60;;;2.33;;
53453;SDS011;49404;50.472;6.954;2022-07-23T08:11:02;4.13;;;3.03;;
53453;SDS011;49404;50.472;6.954;2022-07-23T08:13:30;2.95;;;2.13;;
53453;SDS011;49404;50.472;6.954;2022-07-23T08:15:59;5.28;;;4.07;;
53453;SDS011;49404;50.472;6.954;2022-07-23T08:18:25;4.45;;;3.53;;
53453;SDS011;49404;50.472;6.954;2022-07-23T08:20:50;5.10;;;3.65;;
53453;SDS011;49404;50.472;6.954;2022-07-23T08:23:16;4.30;;;3.10;;
53453;SDS011;49404;50.472;6.954;2022-07-23T08:25:47;4.43;;;3.00;;
53453;SDS011;49404;50.472;6.954;2022-07-23T08:28:14;3.65;;;2.80;;
53453;SDS011;49404;50.472;6.954;2022-07-23T08:30:40;4.80;;;3.45;;
53453;SDS011;49404;50.472;6.954;2022-07-23T08:33:15;3.95;;;3.22;;
53453;SDS011;49404;50.472;6.954;2022-07-23T08:35:43;5.03;;;3.60;;
53453;SDS011;49404;50.472;6.954;2022-07-23T08:38:15;4.63;;;3.08;;
53453;SDS011;49404;50.472;6.954;2022-07-23T08:40:48;4.32;;;3.72;;
53453;SDS011;49404;50.472;6.954;2022-07-23T08:43:19;5.13;;;3.15;;
53453;SDS011;49404;50.472;6.954;2022-07-23T08:45:51;4.32;;;3.30;;
53453;SDS011;49404;50.472;6.954;2022-07-23T08:48:27;3.25;;;2.40;;
53453;SDS011;49404;50.472;6.954;2022-07-23T08:51:03;3.03;;;2.55;;
53453;SDS011;49404;50.472;6.954;2022-07-23T08:53:30;4.38;;;3.97;;
53453;SDS011;49404;50.472;6.954;2022-07-23T08:56:04;5.28;;;3.72;;
53453;SDS011;49404;50.472;6.954;2022-07-23T08:58:30;5.18;;;3.88;;
53453;SDS011;49404;50.472;6.954;2022-07-23T09:01:03;4.22;;;3.33;;
53453;SDS011;49404;50.472;6.954;2022-07-23T09:03:30;3.33;;;2.40;;
53453;SDS011;49404;50.472;6.954;2022-07-23T09:06:00;3.97;;;3.22;;
53453;SDS011;49404;50.472;6.954;2022-07-23T09:08:48;4.72;;;2.80;;
53453;SDS011;49404;50.472;6.954;2022-07-23T09:11:16;10.25;;;9.38;;
53453;SDS011;49404;50.472;6.954;2022-07-23T09:18:57;4.57;;;3.47;;
53453;SDS011;49404;50.472;6.954;2022-07-23T09:21:31;6.75;;;4.78;;
53453;SDS011;49404;50.472;6.954;2022-07-23T09:24:04;3.80;;;2.85;;
53453;SDS011;49404;50.472;6.954;2022-07-23T09:26:42;4.90;;;3.45;;
53453;SDS011;49404;50.472;6.954;2022-07-23T09:29:18;4.25;;;3.83;;
53453;SDS011;49404;50.472;6.954;2022-07-23T09:31:57;4.18;;;3.78;;
53453;SDS011;49404;50.472;6.954;2022-07-23T09:37:16;4.50;;;3.22;;
53453;SDS011;49404;50.472;6.954;2022-07-23T09:39:43;8.68;;;8.00;;
53453;SDS011;49404;50.472;6.954;2022-07-23T09:44:51;4.82;;;3.83;;
53453;SDS011;49404;50.472;6.954;2022-07-23T09:47:19;3.72;;;3.17;;
53453;SDS011;49404;50.472;6.954;2022-07-23T09:52:49;5.35;;;3.30;;
53453;SDS011;49404;50.472;6.954;2022-07-23T09:55:16;3.63;;;2.90;;
53453;SDS011;49404;50.472;6.954;2022-07-23T09:57:42;4.18;;;3.30;;
53453;SDS011;49404;50.472;6.954;2022-07-23T10:00:21;4.82;;;2.65;;
53453;SDS011;49404;50.472;6.954;2022-07-23T10:02:53;7.55;;;2.53;;
53453;SDS011;49404;50.472;6.954;2022-07-23T10:05:28;2.85;;;2.40;;
53453;SDS011;49404;50.472;6.954;2022-07-23T10:07:55;4.40;;;2.60;;
53453;SDS011;49404;50.472;6.954;2022-07-23T10:10:21;3.70;;;2.58;;
53453;SDS011;49404;50.472;6.954;2022-07-23T10:12:53;2.88;;;2.53;;
53453;SDS011;49404;50.472;6.954;2022-07-23T10:15:25;3.33;;;2.60;;
53453;SDS011;49404;50.472;6.954;2022-07-23T10:17:51;3.45;;;2.33;;
53453;SDS011;49404;50.472;6.954;2022-07-23T10:20:17;2.25;;;1.80;;
53453;SDS011;49404;50.472;6.954;2022-07-23T10:23:05;3.38;;;1.92;;
53453;SDS011;49404;50.472;6.954;2022-07-23T10:25:41;4.13;;;2.80;;
53453;SDS011;49404;50.472;6.954;2022-07-23T10:29:10;3.65;;;2.40;;
53453;SDS011;49404;50.472;6.954;2022-07-23T10:34:19;2.88;;;1.80;;
53453;SDS011;49404;50.472;6.954;2022-07-23T10:36:56;2.92;;;1.75;;
53453;SDS011;49404;50.472;6.954;2022-07-23T10:39:43;2.85;;;2.40;;
53453;SDS011;49404;50.472;6.954;2022-07-23T10:42:15;3.05;;;2.28;;
53453;SDS011;49404;50.472;6.954;2022-07-23T10:44:43;3.23;;;1.80;;
53453;SDS011;49404;50.472;6.954;2022-07-23T10:47:29;3.47;;;1.67;;
53453;SDS011;49404;50.472;6.954;2022-07-23T10:50:20;2.25;;;1.77;;
53453;SDS011;49404;50.472;6.954;2022-07-23T10:58:05;2.90;;;2.42;;
53453;SDS011;49404;50.472;6.954;2022-07-23T11:00:33;2.50;;;2.00;;
53453;SDS011;49404;50.472;6.954;2022-07-23T11:03:05;2.67;;;1.73;;
53453;SDS011;49404;50.472;6.954;2022-07-23T11:05:56;2.63;;;1.70;;
53453;SDS011;49404;50.472;6.954;2022-07-23T11:08:29;3.13;;;2.28;;
53453;SDS011;49404;50.472;6.954;2022-07-23T11:13:31;2.55;;;1.60;;
53453;SDS011;49404;50.472;6.954;2022-07-23T11:19:14;2.10;;;1.80;;
53453;SDS011;49404;50.472;6.954;2022-07-23T11:21:40;2.80;;;1.60;;
53453;SDS011;49404;50.472;6.954;2022-07-23T11:24:08;3.35;;;1.83;;
53453;SDS011;49404;50.472;6.954;2022-07-23T11:26:52;2.65;;;1.80;;
53453;SDS011;49404;50.472;6.954;2022-07-23T11:34:45;2.05;;;1.55;;
53453;SDS011;49404;50.472;6.954;2022-07-23T11:37:35;3.30;;;2.75;;
53453;SDS011;49404;50.472;6.954;2022-07-23T11:40:05;5.25;;;3.70;;
53453;SDS011;49404;50.472;6.954;2022-07-23T11:42:40;3.65;;;2.10;;
53453;SDS011;49404;50.472;6.954;2022-07-23T11:45:34;1.80;;;1.67;;
53453;SDS011;49404;50.472;6.954;2022-07-23T11:48:20;2.47;;;1.77;;
53453;SDS011;49404;50.472;6.954;2022-07-23T11:50:52;2.83;;;2.00;;
53453;SDS011;49404;50.472;6.954;2022-07-23T11:56:02;2.20;;;1.67;;
53453;SDS011;49404;50.472;6.954;2022-07-23T11:58:38;2.30;;;1.98;;
53453;SDS011;49404;50.472;6.954;2022-07-23T12:01:04;2.58;;;1.73;;
53453;SDS011;49404;50.472;6.954;2022-07-23T12:03:30;3.10;;;2.13;;
53453;SDS011;49404;50.472;6.954;2022-07-23T12:05:56;2.92;;;1.98;;
53453;SDS011;49404;50.472;6.954;2022-07-23T12:08:29;4.37;;;2.53;;
53453;SDS011;49404;50.472;6.954;2022-07-23T12:10:55;3.75;;;2.50;;
53453;SDS011;49404;50.472;6.954;2022-07-23T12:13:28;3.30;;;2.40;;
53453;SDS011;49404;50.472;6.954;2022-07-23T12:15:56;4.18;;;2.70;;
53453;SDS011;49404;50.472;6.954;2022-07-23T12:18:27;2.00;;;1.80;;
53453;SDS011;49404;50.472;6.954;2022-07-23T12:20:54;4.10;;;2.42;;
53453;SDS011;49404;50.472;6.954;2022-07-23T12:23:22;3.13;;;2.15;;
53453;SDS011;49404;50.472;6.954;2022-07-23T12:25:52;3.00;;;2.10;;
53453;SDS011;49404;50.472;6.954;2022-07-23T12:30:54;3.05;;;2.33;;
53453;SDS011;49404;50.472;6.954;2022-07-23T12:35:55;3.53;;;2.20;;
53453;SDS011;49404;50.472;6.954;2022-07-23T12:41:06;2.63;;;2.30;;
53453;SDS011;49404;50.472;6.954;2022-07-23T12:43:41;2.97;;;1.95;;
53453;SDS011;49404;50.472;6.954;2022-07-23T12:48:39;2.03;;;1.85;;
53453;SDS011;49404;50.472;6.954;2022-07-23T12:53:44;3.60;;;2.60;;
53453;SDS011;49404;50.472;6.954;2022-07-23T12:56:15;3.67;;;2.90;;
53453;SDS011;49404;50.472;6.954;2022-07-23T13:04:07;2.67;;;2.25;;
53453;SDS011;49404;50.472;6.954;2022-07-23T13:06:46;3.67;;;2.20;;
53453;SDS011;49404;50.472;6.954;2022-07-23T13:09:29;2.70;;;2.20;;
53453;SDS011;49404;50.472;6.954;2022-07-23T13:11:56;2.57;;;1.57;;
53453;SDS011;49404;50.472;6.954;2022-07-23T13:14:33;2.55;;;1.40;;
53453;SDS011;49404;50.472;6.954;2022-07-23T13:17:05;1.73;;;1.63;;
53453;SDS011;49404;50.472;6.954;2022-07-23T13:19:31;3.42;;;1.90;;
53453;SDS011;49404;50.472;6.954;2022-07-23T13:21:58;2.35;;;1.60;;
53453;SDS011;49404;50.472;6.954;2022-07-23T13:24:33;2.60;;;1.48;;
53453;SDS011;49404;50.472;6.954;2022-07-23T13:26:58;4.47;;;1.83;;
53453;SDS011;49404;50.472;6.954;2022-07-23T13:29:26;2.58;;;1.60;;
53453;SDS011;49404;50.472;6.954;2022-07-23T13:31:52;3.65;;;1.40;;
53453;SDS011;49404;50.472;6.954;2022-07-23T13:34:17;2.13;;;1.40;;
53453;SDS011;49404;50.472;6.954;2022-07-23T13:36:43;2.42;;;1.55;;
53453;SDS011;49404;50.472;6.954;2022-07-23T13:39:09;2.75;;;1.65;;
53453;SDS011;49404;50.472;6.954;2022-07-23T13:41:34;4.20;;;1.60;;
53453;SDS011;49404;50.472;6.954;2022-07-23T13:44:04;3.13;;;1.60;;
53453;SDS011;49404;50.472;6.954;2022-07-23T13:46:30;3.17;;;1.50;;
53453;SDS011;49404;50.472;6.954;2022-07-23T13:48:57;3.40;;;1.50;;
53453;SDS011;49404;50.472;6.954;2022-07-23T13:51:23;2.30;;;1.60;;
53453;SDS011;49404;50.472;6.954;2022-07-23T13:53:52;3.47;;;1.60;;
53453;SDS011;49404;50.472;6.954;2022-07-23T13:56:18;3.13;;;1.67;;
53453;SDS011;49404;50.472;6.954;2022-07-23T13:58:43;2.35;;;1.52;;
53453;SDS011;49404;50.472;6.954;2022-07-23T14:01:09;2.42;;;1.40;;
53453;SDS011;49404;50.472;6.954;2022-07-23T14:03:35;2.88;;;1.48;;
53453;SDS011;49404;50.472;6.954;2022-07-23T14:06:08;2.40;;;1.50;;
53453;SDS011;49404;50.472;6.954;2022-07-23T14:08:33;2.50;;;1.58;;
53453;SDS011;49404;50.472;6.954;2022-07-23T14:10:59;2.63;;;1.60;;
53453;SDS011;49404;50.472;6.954;2022-07-23T14:13:27;3.72;;;1.50;;
53453;SDS011;49404;50.472;6.954;2022-07-23T14:15:58;2.42;;;1.50;;
53453;SDS011;49404;50.472;6.954;2022-07-23T14:18:33;2.00;;;1.50;;
53453;SDS011;49404;50.472;6.954;2022-07-23T14:20:59;2.47;;;1.70;;
53453;SDS011;49404;50.472;6.954;2022-07-23T14:23:34;1.85;;;1.42;;
53453;SDS011;49404;50.472;6.954;2022-07-23T14:26:00;2.83;;;1.50;;
53453;SDS011;49404;50.472;6.954;2022-07-23T14:28:34;3.08;;;1.70;;
53453;SDS011;49404;50.472;6.954;2022-07-23T14:31:06;1.75;;;1.42;;
53453;SDS011;49404;50.472;6.954;2022-07-23T14:33:32;1.70;;;1.60;;
53453;SDS011;49404;50.472;6.954;2022-07-23T14:35:57;1.77;;;1.40;;
53453;SDS011;49404;50.472;6.954;2022-07-23T14:38:24;1.98;;;1.50;;
53453;SDS011;49404;50.472;6.954;2022-07-23T14:40:52;2.58;;;1.60;;
53453;SDS011;49404;50.472;6.954;2022-07-23T14:43:18;2.20;;;1.75;;
53453;SDS011;49404;50.472;6.954;2022-07-23T14:45:44;2.33;;;1.52;;
53453;SDS011;49404;50.472;6.954;2022-07-23T14:48:12;2.47;;;1.45;;
53453;SDS011;49404;50.472;6.954;2022-07-23T14:50:40;2.70;;;1.50;;
53453;SDS011;49404;50.472;6.954;2022-07-23T14:53:06;2.45;;;1.58;;
53453;SDS011;49404;50.472;6.954;2022-07-23T14:55:34;2.47;;;1.52;;
53453;SDS011;49404;50.472;6.954;2022-07-23T14:58:00;2.67;;;1.50;;
53453;SDS011;49404;50.472;6.954;2022-07-23T15:00:28;2.65;;;1.50;;
53453;SDS011;49404;50.472;6.954;2022-07-23T15:02:54;2.45;;;1.70;;
53453;SDS011;49404;50.472;6.954;2022-07-23T15:05:20;2.88;;;1.90;;
53453;SDS011;49404;50.472;6.954;2022-07-23T15:07:46;2.75;;;1.50;;
53453;SDS011;49404;50.472;6.954;2022-07-23T15:10:13;1.90;;;1.40;;
53453;SDS011;49404;50.472;6.954;2022-07-23T15:12:44;2.58;;;1.50;;
53453;SDS011;49404;50.472;6.954;2022-07-23T15:15:10;1.98;;;1.48;;
53453;SDS011;49404;50.472;6.954;2022-07-23T15:17:36;3.17;;;1.50;;
53453;SDS011;49404;50.472;6.954;2022-07-23T15:20:08;2.10;;;1.35;;
53453;SDS011;49404;50.472;6.954;2022-07-23T15:22:34;1.88;;;1.30;;
53453;SDS011;49404;50.472;6.954;2022-07-23T15:25:07;2.08;;;1.25;;
53453;SDS011;49404;50.472;6.954;2022-07-23T15:27:33;1.58;;;1.30;;
53453;SDS011;49404;50.472;6.954;2022-07-23T15:30:02;2.10;;;1.58;;
53453;SDS011;49404;50.472;6.954;2022-07-23T15:32:31;2.05;;;1.60;;
53453;SDS011;49404;50.472;6.954;2022-07-23T15:34:57;2.35;;;1.70;;
53453;SDS011;49404;50.472;6.954;2022-07-23T15:37:23;2.72;;;1.45;;
53453;SDS011;49404;50.472;6.954;2022-07-23T15:39:49;1.70;;;1.30;;
53453;SDS011;49404;50.472;6.954;2022-07-23T15:42:23;1.60;;;1.30;;
53453;SDS011;49404;50.472;6.954;2022-07-23T15:44:54;3.58;;;1.30;;
53453;SDS011;49404;50.472;6.954;2022-07-23T15:47:19;3.47;;;1.60;;
53453;SDS011;49404;50.472;6.954;2022-07-23T15:49:47;2.25;;;1.60;;
53453;SDS011;49404;50.472;6.954;2022-07-23T15:52:13;3.67;;;1.20;;